sensor_id;sensor_type;location;lat;lon;timestamp;P1;durP1;ratioP1;P2;durP2;ratioP2
69485;SDS011;56677;51.710;5.366;2023-02-01T06:48:16;6.70;;;2.00;;
69485;SDS011;56677;51.710;5.366;2023-02-01T06:50:42;4.47;;;1.65;;
69485;SDS011;56677;51.710;5.366;2023-02-01T06:53:07;4.43;;;1.52;;
69485;SDS011;56677;51.710;5.366;2023-02-01T06:55:32;7.90;;;1.70;;
69485;SDS011;56677;51.710;5.366;2023-02-01T06:57:57;4.53;;;1.30;;
69485;SDS011;56677;51.710;5.366;2023-02-01T07:00:22;8.27;;;1.80;;
69485;SDS011;56677;51.710;5.366;2023-02-01T07:02:47;6.07;;;1.50;;
69485;SDS011;56677;51.710;5.366;2023-02-01T07:05:13;5.47;;;2.00;;
69485;SDS011;56677;51.710;5.366;2023-02-01T07:07:38;5.20;;;1.63;;
69485;SDS011;56677;51.710;5.366;2023-02-01T07:10:03;6.32;;;1.52;;
69485;SDS011;56677;51.710;5.366;2023-02-01T07:12:28;2.93;;;1.30;;
69485;SDS011;56677;51.710;5.366;2023-02-01T07:14:53;5.40;;;2.00;;
69485;SDS011;56677;51.710;5.366;2023-02-01T07:17:18;5.07;;;1.30;;
69485;SDS011;56677;51.710;5.366;2023-02-01T07:19:44;5.07;;;1.80;;
69485;SDS011;56677;51.710;5.366;2023-02-01T07:22:09;7.63;;;2.08;;
69485;SDS011;56677;51.710;5.366;2023-02-01T07:24:34;6.72;;;2.03;;
69485;SDS011;56677;51.710;5.366;2023-02-01T07:26:59;4.47;;;1.60;;
69485;SDS011;56677;51.710;5.366;2023-02-01T07:29:24;4.85;;;1.60;;
69485;SDS011;56677;51.710;5.366;2023-02-01T07:31:49;7.88;;;1.88;;
69485;SDS011;56677;51.710;5.366;2023-02-01T07:34:14;9.15;;;2.00;;
69485;SDS011;56677;51.710;5.366;2023-02-01T07:36:39;8.50;;;1.93;;
69485;SDS011;56677;51.710;5.366;2023-02-01T07:39:05;8.23;;;2.20;;
69485;SDS011;56677;51.710;5.366;2023-02-01T07:41:30;6.75;;;1.90;;
69485;SDS011;56677;51.710;5.366;2023-02-01T07:43:55;5.47;;;1.77;;
69485;SDS011;56677;51.710;5.366;2023-02-01T07:46:20;8.00;;;1.60;;
69485;SDS011;56677;51.710;5.366;2023-02-01T07:48:45;5.93;;;2.10;;
69485;SDS011;56677;51.710;5.366;2023-02-01T07:51:14;7.22;;;1.92;;
69485;SDS011;56677;51.710;5.366;2023-02-01T07:53:40;4.80;;;2.00;;
69485;SDS011;56677;51.710;5.366;2023-02-01T07:56:15;3.63;;;1.60;;
69485;SDS011;56677;51.710;5.366;2023-02-01T07:58:41;6.18;;;1.88;;
69485;SDS011;56677;51.710;5.366;2023-02-01T08:01:11;4.80;;;2.00;;
69485;SDS011;56677;51.710;5.366;2023-02-01T08:03:36;4.38;;;1.63;;
69485;SDS011;56677;51.710;5.366;2023-02-01T08:06:01;4.87;;;2.10;;
69485;SDS011;56677;51.710;5.366;2023-02-01T08:08:26;7.40;;;1.98;;
69485;SDS011;56677;51.710;5.366;2023-02-01T08:10:56;7.03;;;2.60;;
69485;SDS011;56677;51.710;5.366;2023-02-01T08:13:21;5.28;;;2.10;;
69485;SDS011;56677;51.710;5.366;2023-02-01T08:15:46;5.53;;;1.97;;
69485;SDS011;56677;51.710;5.366;2023-02-01T08:18:11;4.93;;;1.48;;
69485;SDS011;56677;51.710;5.366;2023-02-01T08:20:37;5.70;;;1.92;;
69485;SDS011;56677;51.710;5.366;2023-02-01T08:23:02;4.07;;;1.90;;
69485;SDS011;56677;51.710;5.366;2023-02-01T08:25:27;5.90;;;1.67;;
69485;SDS011;56677;51.710;5.366;2023-02-01T08:27:53;6.10;;;1.63;;
69485;SDS011;56677;51.710;5.366;2023-02-01T08:30:18;2.95;;;1.50;;
69485;SDS011;56677;51.710;5.366;2023-02-01T08:32:44;4.17;;;1.60;;
69485;SDS011;56677;51.710;5.366;2023-02-01T08:35:09;4.77;;;1.80;;
69485;SDS011;56677;51.710;5.366;2023-02-01T08:37:34;3.15;;;1.70;;
69485;SDS011;56677;51.710;5.366;2023-02-01T08:39:59;4.25;;;1.90;;
69485;SDS011;56677;51.710;5.366;2023-02-01T08:42:24;6.97;;;2.00;;
69485;SDS011;56677;51.710;5.366;2023-02-01T08:44:49;6.17;;;1.93;;
69485;SDS011;56677;51.710;5.366;2023-02-01T08:47:14;5.53;;;1.80;;
69485;SDS011;56677;51.710;5.366;2023-02-01T08:49:39;6.05;;;2.10;;
69485;SDS011;56677;51.710;5.366;2023-02-01T08:52:04;5.57;;;2.10;;
69485;SDS011;56677;51.710;5.366;2023-02-01T08:54:30;4.07;;;1.70;;
69485;SDS011;56677;51.710;5.366;2023-02-01T08:56:55;4.00;;;1.63;;
69485;SDS011;56677;51.710;5.366;2023-02-01T08:59:20;3.97;;;1.97;;
69485;SDS011;56677;51.710;5.366;2023-02-01T09:01:45;5.60;;;2.15;;
69485;SDS011;56677;51.710;5.366;2023-02-01T09:04:10;6.32;;;2.00;;
69485;SDS011;56677;51.710;5.366;2023-02-01T09:06:35;4.20;;;1.90;;
69485;SDS011;56677;51.710;5.366;2023-02-01T09:09:00;4.45;;;1.63;;
69485;SDS011;56677;51.710;5.366;2023-02-01T09:11:25;5.03;;;2.00;;
69485;SDS011;56677;51.710;5.366;2023-02-01T09:13:50;6.43;;;1.70;;
69485;SDS011;56677;51.710;5.366;2023-02-01T09:16:16;4.28;;;1.50;;
69485;SDS011;56677;51.710;5.366;2023-02-01T09:18:41;5.55;;;1.90;;
69485;SDS011;56677;51.710;5.366;2023-02-01T09:21:06;5.60;;;1.73;;
69485;SDS011;56677;51.710;5.366;2023-02-01T09:23:31;5.40;;;1.47;;
69485;SDS011;56677;51.710;5.366;2023-02-01T09:26:03;5.18;;;1.80;;
69485;SDS011;56677;51.710;5.366;2023-02-01T09:28:28;4.57;;;1.80;;
69485;SDS011;56677;51.710;5.366;2023-02-01T09:30:57;5.15;;;1.83;;
69485;SDS011;56677;51.710;5.366;2023-02-01T09:33:22;5.72;;;1.98;;
69485;SDS011;56677;51.710;5.366;2023-02-01T09:35:47;5.70;;;2.00;;
69485;SDS011;56677;51.710;5.366;2023-02-01T09:38:13;4.90;;;1.70;;
69485;SDS011;56677;51.710;5.366;2023-02-01T09:40:39;5.10;;;1.35;;
69485;SDS011;56677;51.710;5.366;2023-02-01T09:43:12;3.93;;;1.83;;
69485;SDS011;56677;51.710;5.366;2023-02-01T09:48:13;4.65;;;1.73;;
69485;SDS011;56677;51.710;5.366;2023-02-01T09:50:39;4.97;;;1.55;;
69485;SDS011;56677;51.710;5.366;2023-02-01T09:53:15;5.10;;;1.92;;
69485;SDS011;56677;51.710;5.366;2023-02-01T09:55:45;3.23;;;1.10;;
69485;SDS011;56677;51.710;5.366;2023-02-01T09:58:13;5.25;;;1.75;;
69485;SDS011;56677;51.710;5.366;2023-02-01T10:00:39;4.97;;;2.28;;
69485;SDS011;56677;51.710;5.366;2023-02-01T10:03:05;5.93;;;1.88;;
69485;SDS011;56677;51.710;5.366;2023-02-01T10:10:29;5.18;;;1.70;;
69485;SDS011;56677;51.710;5.366;2023-02-01T10:22:42;7.50;;;1.77;;
69485;SDS011;56677;51.710;5.366;2023-02-01T10:25:26;4.20;;;1.80;;
69485;SDS011;56677;51.710;5.366;2023-02-01T10:27:51;4.55;;;1.80;;
69485;SDS011;56677;51.710;5.366;2023-02-01T10:30:21;3.20;;;1.60;;
69485;SDS011;56677;51.710;5.366;2023-02-01T10:32:47;6.28;;;2.08;;
69485;SDS011;56677;51.710;5.366;2023-02-01T10:35:17;4.45;;;1.88;;
69485;SDS011;56677;51.710;5.366;2023-02-01T10:37:43;4.20;;;1.95;;
69485;SDS011;56677;51.710;5.366;2023-02-01T10:40:19;2.97;;;1.80;;
69485;SDS011;56677;51.710;5.366;2023-02-01T10:42:44;6.57;;;1.80;;
69485;SDS011;56677;51.710;5.366;2023-02-01T10:45:11;4.75;;;2.33;;
69485;SDS011;56677;51.710;5.366;2023-02-01T10:47:37;4.55;;;1.63;;
69485;SDS011;56677;51.710;5.366;2023-02-01T10:52:38;3.08;;;1.80;;
69485;SDS011;56677;51.710;5.366;2023-02-01T10:58:01;4.30;;;1.50;;
69485;SDS011;56677;51.710;5.366;2023-02-01T11:00:27;5.15;;;1.98;;
69485;SDS011;56677;51.710;5.366;2023-02-01T11:02:52;3.63;;;1.53;;
69485;SDS011;56677;51.710;5.366;2023-02-01T11:05:18;4.63;;;1.80;;
69485;SDS011;56677;51.710;5.366;2023-02-01T11:07:47;7.17;;;2.03;;
69485;SDS011;56677;51.710;5.366;2023-02-01T11:12:56;4.03;;;1.90;;
69485;SDS011;56677;51.710;5.366;2023-02-01T11:15:22;4.32;;;1.80;;
69485;SDS011;56677;51.710;5.366;2023-02-01T11:17:48;3.75;;;1.73;;
69485;SDS011;56677;51.710;5.366;2023-02-01T11:20:20;3.40;;;1.63;;
69485;SDS011;56677;51.710;5.366;2023-02-01T11:22:52;5.40;;;1.90;;
69485;SDS011;56677;51.710;5.366;2023-02-01T11:25:18;4.23;;;1.83;;
69485;SDS011;56677;51.710;5.366;2023-02-01T11:27:44;4.43;;;1.60;;
69485;SDS011;56677;51.710;5.366;2023-02-01T11:32:53;5.20;;;2.00;;
69485;SDS011;56677;51.710;5.366;2023-02-01T11:35:19;5.57;;;2.07;;
69485;SDS011;56677;51.710;5.366;2023-02-01T11:37:44;4.07;;;1.45;;
69485;SDS011;56677;51.710;5.366;2023-02-01T11:42:52;6.57;;;2.00;;
69485;SDS011;56677;51.710;5.366;2023-02-01T11:45:20;5.47;;;1.80;;
69485;SDS011;56677;51.710;5.366;2023-02-01T11:47:45;5.10;;;1.80;;
69485;SDS011;56677;51.710;5.366;2023-02-01T11:50:18;5.27;;;1.60;;
69485;SDS011;56677;51.710;5.366;2023-02-01T11:57:47;4.80;;;1.40;;
69485;SDS011;56677;51.710;5.366;2023-02-01T12:00:22;7.40;;;1.95;;
69485;SDS011;56677;51.710;5.366;2023-02-01T12:03:05;4.55;;;1.60;;
69485;SDS011;56677;51.710;5.366;2023-02-01T12:05:46;5.23;;;2.07;;
69485;SDS011;56677;51.710;5.366;2023-02-01T12:08:17;4.82;;;1.50;;
69485;SDS011;56677;51.710;5.366;2023-02-01T12:13:22;5.93;;;2.30;;
69485;SDS011;56677;51.710;5.366;2023-02-01T12:15:55;5.15;;;1.60;;
69485;SDS011;56677;51.710;5.366;2023-02-01T12:23:33;6.05;;;1.77;;
69485;SDS011;56677;51.710;5.366;2023-02-01T12:26:03;3.13;;;1.20;;
69485;SDS011;56677;51.710;5.366;2023-02-01T12:46:50;4.67;;;1.50;;
69485;SDS011;56677;51.710;5.366;2023-02-01T12:49:28;5.82;;;1.77;;
69485;SDS011;56677;51.710;5.366;2023-02-01T12:51:55;4.25;;;1.90;;
69485;SDS011;56677;51.710;5.366;2023-02-01T12:54:30;4.57;;;1.77;;
69485;SDS011;56677;51.710;5.366;2023-02-01T12:56:59;4.75;;;1.92;;
69485;SDS011;56677;51.710;5.366;2023-02-01T12:59:42;5.23;;;1.60;;
69485;SDS011;56677;51.710;5.366;2023-02-01T13:07:14;3.90;;;1.50;;
69485;SDS011;56677;51.710;5.366;2023-02-01T13:09:52;3.58;;;1.60;;
69485;SDS011;56677;51.710;5.366;2023-02-01T13:12:21;4.33;;;1.87;;
69485;SDS011;56677;51.710;5.366;2023-02-01T13:14:54;4.03;;;1.80;;
69485;SDS011;56677;51.710;5.366;2023-02-01T13:17:28;3.30;;;1.67;;
69485;SDS011;56677;51.710;5.366;2023-02-01T13:22:32;4.97;;;2.08;;
69485;SDS011;56677;51.710;5.366;2023-02-01T13:25:02;4.73;;;1.50;;
69485;SDS011;56677;51.710;5.366;2023-02-01T13:27:28;4.35;;;1.65;;
69485;SDS011;56677;51.710;5.366;2023-02-01T13:30:04;4.15;;;1.67;;
69485;SDS011;56677;51.710;5.366;2023-02-01T13:35:21;4.90;;;1.77;;
69485;SDS011;56677;51.710;5.366;2023-02-01T13:43:02;6.20;;;2.00;;
69485;SDS011;56677;51.710;5.366;2023-02-01T13:45:30;4.35;;;1.63;;
69485;SDS011;56677;51.710;5.366;2023-02-01T13:47:57;6.78;;;1.60;;
69485;SDS011;56677;51.710;5.366;2023-02-01T13:50:30;4.77;;;1.63;;
69485;SDS011;56677;51.710;5.366;2023-02-01T13:52:57;4.03;;;1.75;;
69485;SDS011;56677;51.710;5.366;2023-02-01T13:55:33;3.78;;;1.65;;
69485;SDS011;56677;51.710;5.366;2023-02-01T13:58:04;4.00;;;1.65;;
69485;SDS011;56677;51.710;5.366;2023-02-01T14:00:34;3.38;;;1.60;;
69485;SDS011;56677;51.710;5.366;2023-02-01T14:08:03;3.45;;;1.38;;
69485;SDS011;56677;51.710;5.366;2023-02-01T14:13:28;4.55;;;1.80;;
69485;SDS011;56677;51.710;5.366;2023-02-01T14:21:34;3.78;;;1.52;;
69485;SDS011;56677;51.710;5.366;2023-02-01T14:26:20;4.07;;;1.88;;
69485;SDS011;56677;51.710;5.366;2023-02-01T14:28:48;3.17;;;1.43;;
69485;SDS011;56677;51.710;5.366;2023-02-01T14:31:15;3.70;;;1.48;;
69485;SDS011;56677;51.710;5.366;2023-02-01T14:33:41;4.07;;;1.50;;
69485;SDS011;56677;51.710;5.366;2023-02-01T14:36:09;5.18;;;1.70;;
69485;SDS011;56677;51.710;5.366;2023-02-01T14:38:36;4.13;;;1.95;;
69485;SDS011;56677;51.710;5.366;2023-02-01T14:41:21;6.53;;;1.40;;
69485;SDS011;56677;51.710;5.366;2023-02-01T14:43:49;5.90;;;1.70;;
69485;SDS011;56677;51.710;5.366;2023-02-01T14:46:14;4.13;;;1.42;;
69485;SDS011;56677;51.710;5.366;2023-02-01T14:48:42;2.90;;;1.23;;
69485;SDS011;56677;51.710;5.366;2023-02-01T14:51:08;4.43;;;1.42;;
69485;SDS011;56677;51.710;5.366;2023-02-01T14:53:33;3.65;;;1.58;;
69485;SDS011;56677;51.710;5.366;2023-02-01T14:56:00;5.43;;;1.70;;
69485;SDS011;56677;51.710;5.366;2023-02-01T15:03:48;6.30;;;2.00;;
69485;SDS011;56677;51.710;5.366;2023-02-01T15:08:57;4.93;;;1.80;;
69485;SDS011;56677;51.710;5.366;2023-02-01T15:11:22;5.00;;;2.10;;
69485;SDS011;56677;51.710;5.366;2023-02-01T15:13:51;3.30;;;1.80;;
69485;SDS011;56677;51.710;5.366;2023-02-01T15:16:17;5.57;;;2.10;;
69485;SDS011;56677;51.710;5.366;2023-02-01T15:18:42;3.60;;;2.10;;
69485;SDS011;56677;51.710;5.366;2023-02-01T15:21:15;4.10;;;1.58;;
69485;SDS011;56677;51.710;5.366;2023-02-01T15:23:40;5.63;;;1.95;;
69485;SDS011;56677;51.710;5.366;2023-02-01T15:26:05;2.90;;;1.30;;
69485;SDS011;56677;51.710;5.366;2023-02-01T15:28:31;6.22;;;1.70;;
69485;SDS011;56677;51.710;5.366;2023-02-01T15:31:00;3.92;;;1.55;;
69485;SDS011;56677;51.710;5.366;2023-02-01T15:33:25;4.38;;;2.20;;
69485;SDS011;56677;51.710;5.366;2023-02-01T15:35:52;5.10;;;1.70;;
69485;SDS011;56677;51.710;5.366;2023-02-01T15:38:18;3.55;;;1.58;;
69485;SDS011;56677;51.710;5.366;2023-02-01T15:43:24;4.78;;;1.33;;
69485;SDS011;56677;51.710;5.366;2023-02-01T15:45:49;2.83;;;1.43;;
69485;SDS011;56677;51.710;5.366;2023-02-01T15:48:17;4.60;;;1.50;;
69485;SDS011;56677;51.710;5.366;2023-02-01T15:50:44;5.03;;;1.45;;
69485;SDS011;56677;51.710;5.366;2023-02-01T15:53:12;4.57;;;2.08;;
69485;SDS011;56677;51.710;5.366;2023-02-01T15:55:41;3.75;;;1.85;;
69485;SDS011;56677;51.710;5.366;2023-02-01T15:58:07;3.90;;;1.67;;
69485;SDS011;56677;51.710;5.366;2023-02-01T16:00:46;4.90;;;1.77;;
69485;SDS011;56677;51.710;5.366;2023-02-01T16:05:54;5.00;;;1.98;;
69485;SDS011;56677;51.710;5.366;2023-02-01T16:08:21;5.32;;;1.60;;
69485;SDS011;56677;51.710;5.366;2023-02-01T16:10:47;3.38;;;1.50;;
69485;SDS011;56677;51.710;5.366;2023-02-01T16:13:13;3.47;;;1.35;;
69485;SDS011;56677;51.710;5.366;2023-02-01T16:15:38;3.90;;;1.50;;
69485;SDS011;56677;51.710;5.366;2023-02-01T16:18:04;4.97;;;1.83;;
69485;SDS011;56677;51.710;5.366;2023-02-01T16:20:29;5.75;;;1.52;;
69485;SDS011;56677;51.710;5.366;2023-02-01T16:22:54;3.50;;;1.52;;
69485;SDS011;56677;51.710;5.366;2023-02-01T16:25:20;3.10;;;1.73;;
69485;SDS011;56677;51.710;5.366;2023-02-01T16:27:45;3.97;;;1.60;;
69485;SDS011;56677;51.710;5.366;2023-02-01T16:30:10;5.95;;;2.05;;
69485;SDS011;56677;51.710;5.366;2023-02-01T16:32:35;3.97;;;2.00;;
69485;SDS011;56677;51.710;5.366;2023-02-01T16:35:01;5.07;;;1.70;;
69485;SDS011;56677;51.710;5.366;2023-02-01T16:37:26;4.45;;;1.90;;
69485;SDS011;56677;51.710;5.366;2023-02-01T16:39:51;3.45;;;1.38;;
69485;SDS011;56677;51.710;5.366;2023-02-01T16:42:16;4.22;;;1.80;;
69485;SDS011;56677;51.710;5.366;2023-02-01T16:44:41;5.20;;;1.63;;
69485;SDS011;56677;51.710;5.366;2023-02-01T16:47:17;5.50;;;1.93;;
69485;SDS011;56677;51.710;5.366;2023-02-01T16:49:43;3.08;;;1.58;;
69485;SDS011;56677;51.710;5.366;2023-02-01T16:52:13;4.77;;;1.93;;
69485;SDS011;56677;51.710;5.366;2023-02-01T16:54:38;4.35;;;1.80;;
69485;SDS011;56677;51.710;5.366;2023-02-01T16:57:04;3.17;;;1.80;;
69485;SDS011;56677;51.710;5.366;2023-02-01T16:59:29;4.40;;;1.50;;
69485;SDS011;56677;51.710;5.366;2023-02-01T17:01:54;4.63;;;1.67;;
69485;SDS011;56677;51.710;5.366;2023-02-01T17:04:19;5.43;;;1.70;;
69485;SDS011;56677;51.710;5.366;2023-02-01T17:06:44;4.65;;;1.83;;
69485;SDS011;56677;51.710;5.366;2023-02-01T17:09:09;4.30;;;1.70;;
69485;SDS011;56677;51.710;5.366;2023-02-01T17:11:35;4.40;;;2.00;;
69485;SDS011;56677;51.710;5.366;2023-02-01T17:14:16;5.18;;;1.83;;
69485;SDS011;56677;51.710;5.366;2023-02-01T17:16:41;4.75;;;1.95;;
69485;SDS011;56677;51.710;5.366;2023-02-01T17:19:12;5.20;;;1.90;;
69485;SDS011;56677;51.710;5.366;2023-02-01T17:21:42;5.20;;;2.10;;
69485;SDS011;56677;51.710;5.366;2023-02-01T17:24:12;4.60;;;2.10;;
69485;SDS011;56677;51.710;5.366;2023-02-01T17:26:38;4.13;;;1.60;;
69485;SDS011;56677;51.710;5.366;2023-02-01T17:29:03;4.50;;;1.52;;
69485;SDS011;56677;51.710;5.366;2023-02-01T17:31:28;4.43;;;1.57;;
69485;SDS011;56677;51.710;5.366;2023-02-01T17:33:53;4.40;;;1.50;;
69485;SDS011;56677;51.710;5.366;2023-02-01T17:36:18;4.03;;;1.70;;
69485;SDS011;56677;51.710;5.366;2023-02-01T17:38:44;4.03;;;1.60;;
69485;SDS011;56677;51.710;5.366;2023-02-01T17:41:12;4.53;;;1.50;;
69485;SDS011;56677;51.710;5.366;2023-02-01T17:43:37;3.35;;;1.42;;
69485;SDS011;56677;51.710;5.366;2023-02-01T17:46:05;4.03;;;1.87;;
69485;SDS011;56677;51.710;5.366;2023-02-01T17:48:30;4.50;;;1.80;;
69485;SDS011;56677;51.710;5.366;2023-02-01T17:50:55;4.00;;;1.80;;
69485;SDS011;56677;51.710;5.366;2023-02-01T17:53:21;4.00;;;1.53;;
69485;SDS011;56677;51.710;5.366;2023-02-01T17:55:46;4.43;;;2.00;;
69485;SDS011;56677;51.710;5.366;2023-02-01T17:58:12;3.42;;;1.70;;
69485;SDS011;56677;51.710;5.366;2023-02-01T18:00:37;5.13;;;1.53;;
69485;SDS011;56677;51.710;5.366;2023-02-01T18:03:02;4.57;;;1.80;;
69485;SDS011;56677;51.710;5.366;2023-02-01T18:05:31;5.87;;;2.10;;
69485;SDS011;56677;51.710;5.366;2023-02-01T18:07:57;5.40;;;2.37;;
69485;SDS011;56677;51.710;5.366;2023-02-01T18:10:22;4.45;;;1.80;;
69485;SDS011;56677;51.710;5.366;2023-02-01T18:12:48;4.32;;;2.40;;
69485;SDS011;56677;51.710;5.366;2023-02-01T18:15:17;5.10;;;1.73;;
69485;SDS011;56677;51.710;5.366;2023-02-01T18:17:42;5.00;;;1.77;;
69485;SDS011;56677;51.710;5.366;2023-02-01T18:20:11;3.65;;;1.75;;
69485;SDS011;56677;51.710;5.366;2023-02-01T18:22:36;5.68;;;2.05;;
69485;SDS011;56677;51.710;5.366;2023-02-01T18:25:07;5.67;;;2.33;;
69485;SDS011;56677;51.710;5.366;2023-02-01T18:27:34;3.67;;;1.60;;
69485;SDS011;56677;51.710;5.366;2023-02-01T18:29:59;4.00;;;1.98;;
69485;SDS011;56677;51.710;5.366;2023-02-01T18:32:24;4.05;;;1.88;;
69485;SDS011;56677;51.710;5.366;2023-02-01T18:34:49;5.18;;;1.50;;
69485;SDS011;56677;51.710;5.366;2023-02-01T18:37:14;5.65;;;1.60;;
69485;SDS011;56677;51.710;5.366;2023-02-01T18:39:39;5.22;;;1.73;;
69485;SDS011;56677;51.710;5.366;2023-02-01T18:42:04;4.53;;;1.88;;
69485;SDS011;56677;51.710;5.366;2023-02-01T18:44:30;5.18;;;2.00;;
69485;SDS011;56677;51.710;5.366;2023-02-01T18:46:55;5.53;;;1.80;;
69485;SDS011;56677;51.710;5.366;2023-02-01T18:49:20;5.13;;;1.60;;
69485;SDS011;56677;51.710;5.366;2023-02-01T18:51:45;5.18;;;1.80;;
69485;SDS011;56677;51.710;5.366;2023-02-01T18:54:10;5.47;;;1.63;;
69485;SDS011;56677;51.710;5.366;2023-02-01T18:56:35;4.18;;;1.92;;
69485;SDS011;56677;51.710;5.366;2023-02-01T18:59:00;6.75;;;1.80;;
69485;SDS011;56677;51.710;5.366;2023-02-01T19:01:25;4.43;;;2.00;;
69485;SDS011;56677;51.710;5.366;2023-02-01T19:03:50;4.13;;;2.00;;
69485;SDS011;56677;51.710;5.366;2023-02-01T19:06:16;6.53;;;2.35;;
69485;SDS011;56677;51.710;5.366;2023-02-01T19:08:43;5.10;;;1.43;;
69485;SDS011;56677;51.710;5.366;2023-02-01T19:11:08;7.13;;;2.08;;
69485;SDS011;56677;51.710;5.366;2023-02-01T19:13:34;6.67;;;1.77;;
69485;SDS011;56677;51.710;5.366;2023-02-01T19:16:04;5.37;;;1.90;;
69485;SDS011;56677;51.710;5.366;2023-02-01T19:18:29;5.28;;;2.20;;
69485;SDS011;56677;51.710;5.366;2023-02-01T19:20:54;6.35;;;1.77;;
69485;SDS011;56677;51.710;5.366;2023-02-01T19:23:25;5.82;;;2.00;;
69485;SDS011;56677;51.710;5.366;2023-02-01T19:25:51;5.93;;;1.85;;
69485;SDS011;56677;51.710;5.366;2023-02-01T19:28:16;5.43;;;1.63;;
69485;SDS011;56677;51.710;5.366;2023-02-01T19:30:41;5.37;;;1.70;;
69485;SDS011;56677;51.710;5.366;2023-02-01T19:33:06;4.38;;;1.77;;
69485;SDS011;56677;51.710;5.366;2023-02-01T19:35:31;4.43;;;2.27;;
69485;SDS011;56677;51.710;5.366;2023-02-01T19:37:56;5.80;;;1.77;;
69485;SDS011;56677;51.710;5.366;2023-02-01T19:40:22;4.90;;;1.80;;
69485;SDS011;56677;51.710;5.366;2023-02-01T19:42:47;9.50;;;1.90;;
69485;SDS011;56677;51.710;5.366;2023-02-01T19:45:12;3.00;;;1.55;;
69485;SDS011;56677;51.710;5.366;2023-02-01T19:47:38;3.60;;;1.47;;
69485;SDS011;56677;51.710;5.366;2023-02-01T19:50:03;7.20;;;2.07;;
69485;SDS011;56677;51.710;5.366;2023-02-01T19:52:28;5.37;;;1.73;;
69485;SDS011;56677;51.710;5.366;2023-02-01T19:54:53;6.18;;;1.38;;
69485;SDS011;56677;51.710;5.366;2023-02-01T19:57:18;4.97;;;1.70;;
69485;SDS011;56677;51.710;5.366;2023-02-01T19:59:43;4.68;;;1.92;;
69485;SDS011;56677;51.710;5.366;2023-02-01T20:02:12;6.97;;;1.98;;
69485;SDS011;56677;51.710;5.366;2023-02-01T20:04:38;5.93;;;2.00;;
69485;SDS011;56677;51.710;5.366;2023-02-01T20:07:03;5.70;;;1.90;;
69485;SDS011;56677;51.710;5.366;2023-02-01T20:09:28;4.85;;;1.48;;
69485;SDS011;56677;51.710;5.366;2023-02-01T20:11:53;5.40;;;2.00;;
69485;SDS011;56677;51.710;5.366;2023-02-01T20:14:18;3.47;;;1.60;;
69485;SDS011;56677;51.710;5.366;2023-02-01T20:16:43;5.07;;;1.93;;
69485;SDS011;56677;51.710;5.366;2023-02-01T20:19:09;4.82;;;1.77;;
69485;SDS011;56677;51.710;5.366;2023-02-01T20:21:35;7.00;;;2.10;;
69485;SDS011;56677;51.710;5.366;2023-02-01T20:24:01;3.58;;;1.50;;
69485;SDS011;56677;51.710;5.366;2023-02-01T20:26:26;4.33;;;1.67;;
69485;SDS011;56677;51.710;5.366;2023-02-01T20:28:51;6.30;;;2.10;;
69485;SDS011;56677;51.710;5.366;2023-02-01T20:31:17;2.60;;;1.50;;
69485;SDS011;56677;51.710;5.366;2023-02-01T20:33:42;4.67;;;2.00;;
69485;SDS011;56677;51.710;5.366;2023-02-01T20:36:07;4.20;;;1.63;;
69485;SDS011;56677;51.710;5.366;2023-02-01T20:38:32;4.70;;;1.80;;
69485;SDS011;56677;51.710;5.366;2023-02-01T20:41:02;5.10;;;1.93;;
69485;SDS011;56677;51.710;5.366;2023-02-01T20:43:27;5.60;;;2.40;;
69485;SDS011;56677;51.710;5.366;2023-02-01T20:45:52;5.00;;;1.65;;
69485;SDS011;56677;51.710;5.366;2023-02-01T20:48:17;5.18;;;1.42;;
69485;SDS011;56677;51.710;5.366;2023-02-01T20:50:42;3.05;;;1.63;;
69485;SDS011;56677;51.710;5.366;2023-02-01T20:53:07;5.25;;;1.80;;
69485;SDS011;56677;51.710;5.366;2023-02-01T20:55:33;3.63;;;1.60;;
69485;SDS011;56677;51.710;5.366;2023-02-01T20:57:58;4.17;;;1.57;;
69485;SDS011;56677;51.710;5.366;2023-02-01T21:00:23;4.20;;;1.80;;
69485;SDS011;56677;51.710;5.366;2023-02-01T21:02:48;15.17;;;5.73;;
69485;SDS011;56677;51.710;5.366;2023-02-01T21:05:14;17.73;;;7.05;;
69485;SDS011;56677;51.710;5.366;2023-02-01T21:07:39;17.97;;;6.83;;
69485;SDS011;56677;51.710;5.366;2023-02-01T21:10:04;15.90;;;5.68;;
69485;SDS011;56677;51.710;5.366;2023-02-01T21:12:30;12.67;;;4.40;;
